sensor_id;sensor_type;location;lat;lon;timestamp;pressure;altitude;pressure_sealevel;temperature;humidity
22580;BME280;11456;47.030;15.396;2023-04-29T00:00:40;97235.66;;;12.01;100.00
22580;BME280;11456;47.030;15.396;2023-04-29T00:03:06;97229.91;;;12.04;100.00
22580;BME280;11456;47.030;15.396;2023-04-29T00:05:33;97219.13;;;12.04;100.00
22580;BME280;11456;47.030;15.396;2023-04-29T00:08:01;97207.63;;;12.19;99.95
22580;BME280;11456;47.030;15.396;2023-04-29T00:10:29;97203.28;;;11.85;100.00
22580;BME280;11456;47.030;15.396;2023-04-29T00:12:55;97187.44;;;11.66;100.00
22580;BME280;11456;47.030;15.396;2023-04-29T00:15:22;97173.78;;;11.59;100.00
22580;BME280;11456;47.030;15.396;2023-04-29T00:17:48;97176.69;;;11.74;100.00
22580;BME280;11456;47.030;15.396;2023-04-29T00:20:16;97191.84;;;11.75;100.00
22580;BME280;11456;47.030;15.396;2023-04-29T00:22:42;97192.69;;;11.68;100.00
22580;BME280;11456;47.030;15.396;2023-04-29T00:25:09;97189.31;;;11.74;100.00
22580;BME280;11456;47.030;15.396;2023-04-29T00:27:37;97187.47;;;11.42;100.00
22580;BME280;11456;47.030;15.396;2023-04-29T00:30:05;97172.31;;;11.33;100.00
22580;BME280;11456;47.030;15.396;2023-04-29T00:32:32;97189.50;;;11.32;100.00
22580;BME280;11456;47.030;15.396;2023-04-29T00:34:59;97193.88;;;11.49;100.00
22580;BME280;11456;47.030;15.396;2023-04-29T00:37:25;97194.72;;;11.49;100.00
22580;BME280;11456;47.030;15.396;2023-04-29T00:39:52;97199.59;;;11.46;100.00
22580;BME280;11456;47.030;15.396;2023-04-29T00:42:19;97216.47;;;11.56;100.00
22580;BME280;11456;47.030;15.396;2023-04-29T00:44:45;97236.00;;;11.66;100.00
22580;BME280;11456;47.030;15.396;2023-04-29T00:47:12;97232.97;;;11.61;100.00
22580;BME280;11456;47.030;15.396;2023-04-29T00:49:38;97233.59;;;11.14;100.00
22580;BME280;11456;47.030;15.396;2023-04-29T00:52:05;97236.00;;;11.50;100.00
22580;BME280;11456;47.030;15.396;2023-04-29T00:54:33;97239.72;;;11.49;100.00
22580;BME280;11456;47.030;15.396;2023-04-29T00:57:00;97241.91;;;11.45;100.00
22580;BME280;11456;47.030;15.396;2023-04-29T00:59:29;97238.03;;;11.32;100.00
22580;BME280;11456;47.030;15.396;2023-04-29T01:02:03;97244.44;;;11.39;100.00
22580;BME280;11456;47.030;15.396;2023-04-29T01:04:30;97254.88;;;11.42;100.00
22580;BME280;11456;47.030;15.396;2023-04-29T01:07:16;97252.00;;;11.35;100.00
22580;BME280;11456;47.030;15.396;2023-04-29T01:10:00;97259.94;;;11.45;100.00
22580;BME280;11456;47.030;15.396;2023-04-29T01:17:40;97250.81;;;11.13;100.00
22580;BME280;11456;47.030;15.396;2023-04-29T01:20:08;97250.44;;;11.08;100.00
22580;BME280;11456;47.030;15.396;2023-04-29T01:22:36;97260.19;;;10.93;100.00
22580;BME280;11456;47.030;15.396;2023-04-29T01:25:05;97259.34;;;10.93;100.00
22580;BME280;11456;47.030;15.396;2023-04-29T01:27:47;97259.16;;;10.86;100.00
22580;BME280;11456;47.030;15.396;2023-04-29T01:30:30;97262.97;;;10.75;100.00
22580;BME280;11456;47.030;15.396;2023-04-29T01:38:23;97254.72;;;10.77;100.00
22580;BME280;11456;47.030;15.396;2023-04-29T01:40:58;97253.38;;;10.73;100.00
22580;BME280;11456;47.030;15.396;2023-04-29T01:43:27;97259.47;;;10.83;100.00
22580;BME280;11456;47.030;15.396;2023-04-29T01:45:57;97255.41;;;10.79;100.00
22580;BME280;11456;47.030;15.396;2023-04-29T01:48:25;97255.72;;;10.68;100.00
22580;BME280;11456;47.030;15.396;2023-04-29T01:50:52;97255.69;;;10.60;100.00
22580;BME280;11456;47.030;15.396;2023-04-29T01:53:18;97257.06;;;10.72;100.00
22580;BME280;11456;47.030;15.396;2023-04-29T01:55:45;97266.03;;;10.80;100.00
22580;BME280;11456;47.030;15.396;2023-04-29T01:58:24;97259.06;;;10.62;100.00
22580;BME280;11456;47.030;15.396;2023-04-29T02:00:54;97263.66;;;10.77;100.00
22580;BME280;11456;47.030;15.396;2023-04-29T02:03:21;97265.50;;;10.69;100.00
22580;BME280;11456;47.030;15.396;2023-04-29T02:05:52;97261.75;;;10.62;100.00
22580;BME280;11456;47.030;15.396;2023-04-29T02:08:19;97268.00;;;10.62;100.00
22580;BME280;11456;47.030;15.396;2023-04-29T02:10:55;97254.88;;;10.67;100.00
22580;BME280;11456;47.030;15.396;2023-04-29T02:13:51;97255.03;;;10.66;100.00
22580;BME280;11456;47.030;15.396;2023-04-29T02:16:19;97253.69;;;10.70;100.00
22580;BME280;11456;47.030;15.396;2023-04-29T02:18:54;97250.94;;;10.54;100.00
22580;BME280;11456;47.030;15.396;2023-04-29T02:21:21;97263.72;;;10.52;100.00
22580;BME280;11456;47.030;15.396;2023-04-29T02:23:47;97256.78;;;10.41;100.00
22580;BME280;11456;47.030;15.396;2023-04-29T02:26:14;97253.28;;;10.49;100.00
22580;BME280;11456;47.030;15.396;2023-04-29T02:28:41;97253.44;;;10.47;100.00
22580;BME280;11456;47.030;15.396;2023-04-29T02:31:07;97258.13;;;10.45;100.00
22580;BME280;11456;47.030;15.396;2023-04-29T02:33:34;97255.44;;;10.11;100.00
22580;BME280;11456;47.030;15.396;2023-04-29T02:36:01;97256.53;;;10.26;100.00
22580;BME280;11456;47.030;15.396;2023-04-29T02:38:27;97249.84;;;10.30;100.00
22580;BME280;11456;47.030;15.396;2023-04-29T02:40:54;97253.53;;;10.12;100.00
22580;BME280;11456;47.030;15.396;2023-04-29T02:43:20;97264.00;;;9.89;100.00
22580;BME280;11456;47.030;15.396;2023-04-29T02:45:47;97259.69;;;9.96;100.00
22580;BME280;11456;47.030;15.396;2023-04-29T02:48:14;97259.91;;;10.02;100.00
22580;BME280;11456;47.030;15.396;2023-04-29T02:50:41;97270.66;;;10.02;100.00
22580;BME280;11456;47.030;15.396;2023-04-29T02:53:08;97281.91;;;9.98;100.00
22580;BME280;11456;47.030;15.396;2023-04-29T02:55:34;97269.91;;;9.92;100.00
22580;BME280;11456;47.030;15.396;2023-04-29T02:58:06;97267.19;;;9.84;100.00
22580;BME280;11456;47.030;15.396;2023-04-29T03:00:32;97264.00;;;9.89;100.00
22580;BME280;11456;47.030;15.396;2023-04-29T03:02:59;97264.63;;;9.83;100.00
22580;BME280;11456;47.030;15.396;2023-04-29T03:05:26;97272.34;;;9.78;100.00
22580;BME280;11456;47.030;15.396;2023-04-29T03:07:53;97271.56;;;9.68;100.00
22580;BME280;11456;47.030;15.396;2023-04-29T03:10:20;97265.13;;;9.60;100.00
22580;BME280;11456;47.030;15.396;2023-04-29T03:12:46;97271.28;;;9.71;100.00
22580;BME280;11456;47.030;15.396;2023-04-29T03:15:14;97275.69;;;9.80;100.00
22580;BME280;11456;47.030;15.396;2023-04-29T03:17:41;97271.56;;;9.85;100.00
22580;BME280;11456;47.030;15.396;2023-04-29T03:20:08;97271.56;;;9.68;100.00
22580;BME280;11456;47.030;15.396;2023-04-29T03:22:36;97266.00;;;9.87;100.00
22580;BME280;11456;47.030;15.396;2023-04-29T03:25:03;97275.41;;;9.83;100.00
22580;BME280;11456;47.030;15.396;2023-04-29T03:27:29;97268.72;;;9.69;100.00
22580;BME280;11456;47.030;15.396;2023-04-29T03:29:56;97260.38;;;9.54;100.00
22580;BME280;11456;47.030;15.396;2023-04-29T03:32:22;97261.44;;;9.61;100.00
22580;BME280;11456;47.030;15.396;2023-04-29T03:34:49;97259.44;;;9.63;100.00
22580;BME280;11456;47.030;15.396;2023-04-29T03:37:38;97263.31;;;9.43;100.00
22580;BME280;11456;47.030;15.396;2023-04-29T03:40:21;97269.69;;;9.42;100.00
22580;BME280;11456;47.030;15.396;2023-04-29T03:42:48;97264.09;;;9.53;100.00
22580;BME280;11456;47.030;15.396;2023-04-29T03:45:16;97262.41;;;9.52;100.00
22580;BME280;11456;47.030;15.396;2023-04-29T03:47:43;97255.94;;;9.45;100.00
22580;BME280;11456;47.030;15.396;2023-04-29T03:50:10;97251.19;;;9.39;100.00
22580;BME280;11456;47.030;15.396;2023-04-29T03:52:38;97257.38;;;9.57;100.00
22580;BME280;11456;47.030;15.396;2023-04-29T03:55:14;97254.38;;;9.60;100.00
22580;BME280;11456;47.030;15.396;2023-04-29T03:57:42;97251.63;;;9.52;100.00
22580;BME280;11456;47.030;15.396;2023-04-29T04:00:09;97250.56;;;9.45;100.00
22580;BME280;11456;47.030;15.396;2023-04-29T04:02:41;97261.78;;;9.58;100.00
22580;BME280;11456;47.030;15.396;2023-04-29T04:05:09;97257.63;;;9.46;100.00
22580;BME280;11456;47.030;15.396;2023-04-29T04:07:39;97253.72;;;9.58;100.00
22580;BME280;11456;47.030;15.396;2023-04-29T04:10:25;97257.69;;;9.54;100.00
22580;BME280;11456;47.030;15.396;2023-04-29T04:12:54;97257.59;;;9.64;100.00
22580;BME280;11456;47.030;15.396;2023-04-29T04:15:20;97260.22;;;9.56;100.00
22580;BME280;11456;47.030;15.396;2023-04-29T04:17:47;97265.56;;;9.74;100.00
22580;BME280;11456;47.030;15.396;2023-04-29T04:20:14;97265.06;;;9.70;100.00
22580;BME280;11456;47.030;15.396;2023-04-29T04:22:41;97266.53;;;9.64;100.00
22580;BME280;11456;47.030;15.396;2023-04-29T04:25:15;97264.06;;;9.71;100.00
22580;BME280;11456;47.030;15.396;2023-04-29T04:27:42;97262.53;;;9.94;100.00
22580;BME280;11456;47.030;15.396;2023-04-29T04:30:15;97272.34;;;10.03;100.00
22580;BME280;11456;47.030;15.396;2023-04-29T04:32:42;97270.22;;;10.15;100.00
22580;BME280;11456;47.030;15.396;2023-04-29T04:35:08;97265.16;;;10.12;100.00
22580;BME280;11456;47.030;15.396;2023-04-29T04:37:35;97273.91;;;10.14;100.00
22580;BME280;11456;47.030;15.396;2023-04-29T04:40:02;97265.16;;;10.38;100.00
22580;BME280;11456;47.030;15.396;2023-04-29T04:42:33;97267.81;;;10.56;100.00
22580;BME280;11456;47.030;15.396;2023-04-29T04:44:59;97254.16;;;10.57;100.00
22580;BME280;11456;47.030;15.396;2023-04-29T04:47:36;97271.94;;;10.84;100.00
22580;BME280;11456;47.030;15.396;2023-04-29T04:50:19;97255.47;;;10.87;100.00
22580;BME280;11456;47.030;15.396;2023-04-29T04:52:47;97266.53;;;10.84;100.00
22580;BME280;11456;47.030;15.396;2023-04-29T04:55:28;97266.88;;;10.81;100.00
22580;BME280;11456;47.030;15.396;2023-04-29T04:57:55;97275.50;;;10.93;100.00
22580;BME280;11456;47.030;15.396;2023-04-29T05:00:21;97273.38;;;11.20;100.00
22580;BME280;11456;47.030;15.396;2023-04-29T05:02:48;97276.75;;;11.22;100.00
22580;BME280;11456;47.030;15.396;2023-04-29T05:05:14;97276.72;;;11.06;100.00
22580;BME280;11456;47.030;15.396;2023-04-29T05:07:42;97279.09;;;11.17;100.00
22580;BME280;11456;47.030;15.396;2023-04-29T05:10:09;97277.16;;;11.52;100.00
22580;BME280;11456;47.030;15.396;2023-04-29T05:12:44;97274.78;;;11.57;100.00
22580;BME280;11456;47.030;15.396;2023-04-29T05:15:10;97274.97;;;11.63;100.00
22580;BME280;11456;47.030;15.396;2023-04-29T05:17:38;97284.25;;;11.85;100.00
22580;BME280;11456;47.030;15.396;2023-04-29T05:20:04;97294.03;;;12.02;100.00
22580;BME280;11456;47.030;15.396;2023-04-29T05:22:32;97296.34;;;12.30;100.00
22580;BME280;11456;47.030;15.396;2023-04-29T05:25:00;97291.28;;;12.35;99.27
22580;BME280;11456;47.030;15.396;2023-04-29T05:27:31;97280.44;;;12.51;99.95
22580;BME280;11456;47.030;15.396;2023-04-29T05:29:58;97271.31;;;12.44;97.21
22580;BME280;11456;47.030;15.396;2023-04-29T05:32:24;97271.09;;;12.62;95.81
22580;BME280;11456;47.030;15.396;2023-04-29T05:34:51;97279.78;;;12.41;97.60
22580;BME280;11456;47.030;15.396;2023-04-29T05:37:18;97274.56;;;12.87;97.26
22580;BME280;11456;47.030;15.396;2023-04-29T05:40:00;97289.50;;;12.66;94.40
22580;BME280;11456;47.030;15.396;2023-04-29T05:42:28;97289.44;;;12.74;95.53
22580;BME280;11456;47.030;15.396;2023-04-29T05:44:55;97287.97;;;13.11;97.01
22580;BME280;11456;47.030;15.396;2023-04-29T05:47:22;97302.16;;;13.13;97.89
22580;BME280;11456;47.030;15.396;2023-04-29T05:49:48;97307.13;;;13.32;95.50
22580;BME280;11456;47.030;15.396;2023-04-29T05:52:15;97296.34;;;13.55;94.15
22580;BME280;11456;47.030;15.396;2023-04-29T05:54:45;97293.03;;;13.68;91.96
22580;BME280;11456;47.030;15.396;2023-04-29T05:57:11;97281.75;;;13.33;92.69
22580;BME280;11456;47.030;15.396;2023-04-29T05:59:39;97287.38;;;13.54;92.31
22580;BME280;11456;47.030;15.396;2023-04-29T06:02:05;97293.91;;;13.83;92.69
22580;BME280;11456;47.030;15.396;2023-04-29T06:04:33;97293.91;;;13.83;91.50
22580;BME280;11456;47.030;15.396;2023-04-29T06:07:39;97300.22;;;13.98;90.09
22580;BME280;11456;47.030;15.396;2023-04-29T06:10:19;97294.59;;;14.22;90.76
22580;BME280;11456;47.030;15.396;2023-04-29T06:12:45;97301.34;;;14.26;89.06
22580;BME280;11456;47.030;15.396;2023-04-29T06:15:14;97307.09;;;14.46;88.00
22580;BME280;11456;47.030;15.396;2023-04-29T06:17:41;97295.53;;;14.29;86.70
22580;BME280;11456;47.030;15.396;2023-04-29T06:20:08;97298.47;;;14.05;88.29
22580;BME280;11456;47.030;15.396;2023-04-29T06:22:37;97291.44;;;14.33;87.44
22580;BME280;11456;47.030;15.396;2023-04-29T06:25:03;97295.72;;;14.65;86.35
22580;BME280;11456;47.030;15.396;2023-04-29T06:27:41;97298.22;;;14.67;86.97
22580;BME280;11456;47.030;15.396;2023-04-29T06:30:07;97309.06;;;14.29;87.44
22580;BME280;11456;47.030;15.396;2023-04-29T06:32:35;97302.97;;;14.50;84.80
22580;BME280;11456;47.030;15.396;2023-04-29T06:35:01;97301.34;;;14.26;87.30
22580;BME280;11456;47.030;15.396;2023-04-29T06:37:46;97296.31;;;15.11;85.78
22580;BME280;11456;47.030;15.396;2023-04-29T06:40:39;97293.34;;;15.78;81.92
22580;BME280;11456;47.030;15.396;2023-04-29T06:43:26;97284.94;;;15.37;79.08
22580;BME280;11456;47.030;15.396;2023-04-29T06:46:11;97281.28;;;15.45;80.18
22580;BME280;11456;47.030;15.396;2023-04-29T06:48:46;97276.59;;;15.75;77.92
22580;BME280;11456;47.030;15.396;2023-04-29T06:51:12;97275.00;;;15.80;80.55
22580;BME280;11456;47.030;15.396;2023-04-29T06:53:39;97285.88;;;15.80;77.17
22580;BME280;11456;47.030;15.396;2023-04-29T06:56:06;97282.38;;;15.50;78.52
22580;BME280;11456;47.030;15.396;2023-04-29T06:58:32;97285.66;;;16.03;75.84
22580;BME280;11456;47.030;15.396;2023-04-29T07:00:59;97285.00;;;15.44;76.34
22580;BME280;11456;47.030;15.396;2023-04-29T07:03:25;97285.44;;;16.26;77.42
22580;BME280;11456;47.030;15.396;2023-04-29T07:05:52;97285.47;;;16.32;75.36
22580;BME280;11456;47.030;15.396;2023-04-29T07:08:19;97286.03;;;16.49;76.72
22580;BME280;11456;47.030;15.396;2023-04-29T07:10:52;97285.59;;;16.52;74.08
22580;BME280;11456;47.030;15.396;2023-04-29T07:13:22;97281.72;;;16.89;73.99
22580;BME280;11456;47.030;15.396;2023-04-29T07:15:49;97282.75;;;16.88;75.15
22580;BME280;11456;47.030;15.396;2023-04-29T07:18:16;97285.69;;;17.34;72.32
22580;BME280;11456;47.030;15.396;2023-04-29T07:20:43;97286.53;;;17.41;69.90
22580;BME280;11456;47.030;15.396;2023-04-29T07:23:10;97279.53;;;17.80;70.62
22580;BME280;11456;47.030;15.396;2023-04-29T07:25:37;97280.84;;;18.03;67.66
22580;BME280;11456;47.030;15.396;2023-04-29T07:28:04;97271.59;;;18.37;66.79
22580;BME280;11456;47.030;15.396;2023-04-29T07:30:31;97278.28;;;17.76;67.54
22580;BME280;11456;47.030;15.396;2023-04-29T07:32:57;97272.34;;;19.10;64.92
22580;BME280;11456;47.030;15.396;2023-04-29T07:35:24;97280.56;;;18.97;60.03
22580;BME280;11456;47.030;15.396;2023-04-29T07:37:50;97280.78;;;18.89;61.10
22580;BME280;11456;47.030;15.396;2023-04-29T07:40:17;97277.38;;;19.13;62.00
22580;BME280;11456;47.030;15.396;2023-04-29T07:42:43;97278.59;;;19.24;61.17
22580;BME280;11456;47.030;15.396;2023-04-29T07:45:10;97275.72;;;19.06;57.85
22580;BME280;11456;47.030;15.396;2023-04-29T07:47:39;97278.56;;;19.31;59.05
22580;BME280;11456;47.030;15.396;2023-04-29T07:50:05;97278.69;;;20.93;52.92
22580;BME280;11456;47.030;15.396;2023-04-29T07:52:32;97283.84;;;20.83;50.34
22580;BME280;11456;47.030;15.396;2023-04-29T07:55:01;97292.13;;;19.57;56.66
22580;BME280;11456;47.030;15.396;2023-04-29T07:57:28;97292.97;;;20.52;53.00
22580;BME280;11456;47.030;15.396;2023-04-29T07:59:54;97289.78;;;19.60;53.08
22580;BME280;11456;47.030;15.396;2023-04-29T08:02:21;97295.94;;;20.19;54.16
22580;BME280;11456;47.030;15.396;2023-04-29T08:04:49;97296.38;;;21.33;51.90
22580;BME280;11456;47.030;15.396;2023-04-29T08:07:17;97299.81;;;21.77;47.45
22580;BME280;11456;47.030;15.396;2023-04-29T08:09:44;97301.69;;;21.46;47.49
22580;BME280;11456;47.030;15.396;2023-04-29T08:12:10;97299.31;;;21.68;45.50
22580;BME280;11456;47.030;15.396;2023-04-29T08:14:39;97304.31;;;22.31;44.55
22580;BME280;11456;47.030;15.396;2023-04-29T08:17:05;97296.31;;;22.29;45.38
22580;BME280;11456;47.030;15.396;2023-04-29T08:19:32;97300.28;;;22.33;44.01
22580;BME280;11456;47.030;15.396;2023-04-29T08:21:59;97301.28;;;20.63;47.14
22580;BME280;11456;47.030;15.396;2023-04-29T08:24:26;97305.13;;;19.99;49.10
22580;BME280;11456;47.030;15.396;2023-04-29T08:26:54;97302.03;;;20.21;49.03
22580;BME280;11456;47.030;15.396;2023-04-29T08:29:21;97305.56;;;19.96;49.92
22580;BME280;11456;47.030;15.396;2023-04-29T08:31:48;97314.28;;;20.12;49.53
22580;BME280;11456;47.030;15.396;2023-04-29T08:34:15;97307.75;;;19.81;51.89
22580;BME280;11456;47.030;15.396;2023-04-29T08:36:41;97315.47;;;19.53;51.19
22580;BME280;11456;47.030;15.396;2023-04-29T08:39:08;97319.06;;;19.85;51.08
22580;BME280;11456;47.030;15.396;2023-04-29T08:41:35;97322.22;;;19.37;53.07
22580;BME280;11456;47.030;15.396;2023-04-29T08:44:02;97326.19;;;19.92;51.90
22580;BME280;11456;47.030;15.396;2023-04-29T08:46:28;97322.44;;;20.50;50.91
22580;BME280;11456;47.030;15.396;2023-04-29T08:48:55;97312.28;;;20.57;54.11
22580;BME280;11456;47.030;15.396;2023-04-29T08:51:23;97318.09;;;20.92;47.28
22580;BME280;11456;47.030;15.396;2023-04-29T08:53:49;97304.88;;;21.62;48.09
22580;BME280;11456;47.030;15.396;2023-04-29T08:56:16;97307.72;;;21.37;44.93
22580;BME280;11456;47.030;15.396;2023-04-29T08:58:45;97315.94;;;20.94;49.20
22580;BME280;11456;47.030;15.396;2023-04-29T09:01:12;97310.81;;;21.58;46.66
22580;BME280;11456;47.030;15.396;2023-04-29T09:03:42;97307.41;;;20.84;47.22
22580;BME280;11456;47.030;15.396;2023-04-29T09:06:10;97313.53;;;21.04;45.60
22580;BME280;11456;47.030;15.396;2023-04-29T09:08:38;97315.19;;;20.87;46.80
22580;BME280;11456;47.030;15.396;2023-04-29T09:11:07;97318.00;;;21.71;44.91
22580;BME280;11456;47.030;15.396;2023-04-29T09:13:34;97305.16;;;22.31;43.08
22580;BME280;11456;47.030;15.396;2023-04-29T09:16:01;97301.66;;;22.13;45.34
22580;BME280;11456;47.030;15.396;2023-04-29T09:21:29;97300.75;;;21.52;44.87
22580;BME280;11456;47.030;15.396;2023-04-29T09:24:00;97298.69;;;21.66;44.62
22580;BME280;11456;47.030;15.396;2023-04-29T09:26:27;97297.13;;;21.40;45.07
22580;BME280;11456;47.030;15.396;2023-04-29T09:29:09;97302.34;;;23.31;44.49
22580;BME280;11456;47.030;15.396;2023-04-29T09:31:39;97286.84;;;24.67;41.01
22580;BME280;11456;47.030;15.396;2023-04-29T09:34:06;97292.94;;;24.69;39.86
22580;BME280;11456;47.030;15.396;2023-04-29T09:39:06;97280.50;;;23.13;44.79
22580;BME280;11456;47.030;15.396;2023-04-29T09:41:41;97275.13;;;25.10;41.78
22580;BME280;11456;47.030;15.396;2023-04-29T09:44:08;97273.72;;;26.16;38.27
22580;BME280;11456;47.030;15.396;2023-04-29T09:46:35;97279.81;;;25.70;37.81
22580;BME280;11456;47.030;15.396;2023-04-29T09:49:03;97280.38;;;24.90;39.47
22580;BME280;11456;47.030;15.396;2023-04-29T09:51:32;97284.03;;;25.17;38.72
22580;BME280;11456;47.030;15.396;2023-04-29T09:54:04;97273.63;;;24.86;38.79
22580;BME280;11456;47.030;15.396;2023-04-29T09:56:48;97278.66;;;24.55;38.18
22580;BME280;11456;47.030;15.396;2023-04-29T09:59:16;97265.47;;;24.91;37.95
22580;BME280;11456;47.030;15.396;2023-04-29T10:01:43;97270.97;;;24.91;38.46
22580;BME280;11456;47.030;15.396;2023-04-29T10:04:09;97270.38;;;24.72;38.33
22580;BME280;11456;47.030;15.396;2023-04-29T10:06:37;97266.63;;;25.55;37.08
22580;BME280;11456;47.030;15.396;2023-04-29T10:09:06;97270.94;;;25.89;35.52
22580;BME280;11456;47.030;15.396;2023-04-29T10:11:33;97261.50;;;26.12;34.92
22580;BME280;11456;47.030;15.396;2023-04-29T10:14:02;97265.75;;;25.28;36.69
22580;BME280;11456;47.030;15.396;2023-04-29T10:16:30;97262.91;;;25.23;36.12
22580;BME280;11456;47.030;15.396;2023-04-29T10:19:02;97263.72;;;25.62;36.65
22580;BME280;11456;47.030;15.396;2023-04-29T10:21:29;97259.66;;;27.19;33.79
22580;BME280;11456;47.030;15.396;2023-04-29T10:23:57;97264.75;;;25.17;36.67
22580;BME280;11456;47.030;15.396;2023-04-29T10:26:27;97257.34;;;25.39;35.66
22580;BME280;11456;47.030;15.396;2023-04-29T10:28:55;97258.13;;;24.80;36.22
22580;BME280;11456;47.030;15.396;2023-04-29T10:31:22;97247.03;;;26.00;34.19
22580;BME280;11456;47.030;15.396;2023-04-29T10:33:50;97241.16;;;25.65;34.00
22580;BME280;11456;47.030;15.396;2023-04-29T10:36:20;97237.94;;;26.26;33.88
22580;BME280;11456;47.030;15.396;2023-04-29T10:38:48;97238.31;;;27.61;31.59
22580;BME280;11456;47.030;15.396;2023-04-29T10:41:29;97236.00;;;26.59;32.67
22580;BME280;11456;47.030;15.396;2023-04-29T10:43:57;97228.13;;;25.87;34.01
22580;BME280;11456;47.030;15.396;2023-04-29T10:46:24;97230.34;;;27.18;32.76
22580;BME280;11456;47.030;15.396;2023-04-29T10:49:01;97230.00;;;27.61;32.04
22580;BME280;11456;47.030;15.396;2023-04-29T10:53:59;97235.63;;;27.81;31.76
22580;BME280;11456;47.030;15.396;2023-04-29T10:56:39;97231.56;;;26.58;31.86
22580;BME280;11456;47.030;15.396;2023-04-29T10:59:09;97218.63;;;24.19;37.64
22580;BME280;11456;47.030;15.396;2023-04-29T11:04:09;97215.75;;;24.47;37.37
22580;BME280;11456;47.030;15.396;2023-04-29T11:06:37;97222.06;;;23.69;39.81
22580;BME280;11456;47.030;15.396;2023-04-29T11:09:20;97212.13;;;23.40;39.76
22580;BME280;11456;47.030;15.396;2023-04-29T11:11:57;97224.25;;;23.15;41.82
22580;BME280;11456;47.030;15.396;2023-04-29T11:14:29;97220.72;;;22.57;44.84
22580;BME280;11456;47.030;15.396;2023-04-29T11:16:57;97218.53;;;22.12;43.23
22580;BME280;11456;47.030;15.396;2023-04-29T11:19:25;97215.66;;;21.95;43.38
22580;BME280;11456;47.030;15.396;2023-04-29T11:24:47;97200.88;;;20.82;53.31
22580;BME280;11456;47.030;15.396;2023-04-29T11:27:14;97205.09;;;20.85;52.16
22580;BME280;11456;47.030;15.396;2023-04-29T11:29:41;97209.63;;;21.27;50.72
22580;BME280;11456;47.030;15.396;2023-04-29T11:32:08;97203.41;;;21.20;46.54
22580;BME280;11456;47.030;15.396;2023-04-29T11:34:34;97198.69;;;21.27;56.84
22580;BME280;11456;47.030;15.396;2023-04-29T11:37:01;97197.09;;;21.91;62.32
22580;BME280;11456;47.030;15.396;2023-04-29T11:39:27;97194.00;;;20.79;66.36
22580;BME280;11456;47.030;15.396;2023-04-29T11:42:06;97198.16;;;20.64;72.30
22580;BME280;11456;47.030;15.396;2023-04-29T11:44:33;97196.38;;;20.33;69.69
22580;BME280;11456;47.030;15.396;2023-04-29T11:47:01;97194.63;;;20.38;67.36
22580;BME280;11456;47.030;15.396;2023-04-29T11:49:29;97184.66;;;23.40;46.90
22580;BME280;11456;47.030;15.396;2023-04-29T11:51:56;97187.44;;;24.02;44.29
22580;BME280;11456;47.030;15.396;2023-04-29T11:54:24;97188.25;;;25.24;40.06
22580;BME280;11456;47.030;15.396;2023-04-29T11:56:52;97182.53;;;24.70;40.19
22580;BME280;11456;47.030;15.396;2023-04-29T11:59:18;97172.47;;;26.59;35.28
22580;BME280;11456;47.030;15.396;2023-04-29T12:01:45;97181.25;;;26.51;36.20
22580;BME280;11456;47.030;15.396;2023-04-29T12:04:11;97170.75;;;26.90;35.13
22580;BME280;11456;47.030;15.396;2023-04-29T12:06:39;97169.97;;;26.94;33.31
22580;BME280;11456;47.030;15.396;2023-04-29T12:09:07;97161.38;;;25.85;34.54
22580;BME280;11456;47.030;15.396;2023-04-29T12:11:34;97168.97;;;24.86;37.51
22580;BME280;11456;47.030;15.396;2023-04-29T12:14:02;97157.66;;;26.33;35.55
22580;BME280;11456;47.030;15.396;2023-04-29T12:16:31;97165.34;;;27.92;31.60
22580;BME280;11456;47.030;15.396;2023-04-29T12:18:58;97163.63;;;26.57;35.67
22580;BME280;11456;47.030;15.396;2023-04-29T12:21:26;97166.03;;;26.85;34.26
22580;BME280;11456;47.030;15.396;2023-04-29T12:24:00;97157.81;;;26.21;35.28
22580;BME280;11456;47.030;15.396;2023-04-29T12:26:28;97151.31;;;26.32;32.10
22580;BME280;11456;47.030;15.396;2023-04-29T12:28:56;97157.81;;;26.95;32.39
22580;BME280;11456;47.030;15.396;2023-04-29T12:31:32;97149.66;;;25.24;35.78
22580;BME280;11456;47.030;15.396;2023-04-29T12:34:01;97152.59;;;25.93;33.19
22580;BME280;11456;47.030;15.396;2023-04-29T12:36:28;97148.59;;;27.42;31.58
22580;BME280;11456;47.030;15.396;2023-04-29T12:38:55;97140.47;;;28.38;30.33
22580;BME280;11456;47.030;15.396;2023-04-29T12:41:43;97134.84;;;28.89;28.76
22580;BME280;11456;47.030;15.396;2023-04-29T12:44:08;97137.53;;;27.32;31.27
22580;BME280;11456;47.030;15.396;2023-04-29T12:46:38;97143.47;;;26.98;32.08
22580;BME280;11456;47.030;15.396;2023-04-29T12:49:06;97121.81;;;28.89;29.85
22580;BME280;11456;47.030;15.396;2023-04-29T12:51:33;97125.25;;;29.30;29.28
22580;BME280;11456;47.030;15.396;2023-04-29T12:54:00;97124.72;;;30.21;27.66
22580;BME280;11456;47.030;15.396;2023-04-29T12:56:29;97125.13;;;29.61;27.64
22580;BME280;11456;47.030;15.396;2023-04-29T12:59:03;97120.56;;;29.21;28.48
22580;BME280;11456;47.030;15.396;2023-04-29T13:01:30;97113.50;;;28.89;30.49
22580;BME280;11456;47.030;15.396;2023-04-29T13:03:56;97111.63;;;28.54;28.86
22580;BME280;11456;47.030;15.396;2023-04-29T13:06:24;97117.44;;;26.89;31.00
22580;BME280;11456;47.030;15.396;2023-04-29T13:08:51;97119.84;;;26.33;32.09
22580;BME280;11456;47.030;15.396;2023-04-29T13:11:17;97109.34;;;25.99;33.57
22580;BME280;11456;47.030;15.396;2023-04-29T13:13:44;97122.63;;;25.48;34.33
22580;BME280;11456;47.030;15.396;2023-04-29T13:16:11;97120.41;;;24.80;34.01
22580;BME280;11456;47.030;15.396;2023-04-29T13:18:38;97119.78;;;25.16;34.31
22580;BME280;11456;47.030;15.396;2023-04-29T13:21:04;97123.03;;;23.97;34.87